Time;durP1;ratioP1;P1;durP2;ratioP2;P2;SDS_P1;SDS_P2;PMS_P1;PMS_P2;Temp;Humidity;BMP_temperature;BMP_pressure;BME280_temperature;BME280_humidity;BME280_pressure;Samples;Min_cycle;Max_cycle;Signal;HPM_P1;HPM_P2
2022/07/07 00:01:42;;;;;;;9.70;4.20;;;;;;;14.32;79.14;98744.80;105992;1285;22689;-81
2022/07/07 00:04:11;;;;;;;9.30;3.40;;;;;;;14.36;79.44;98745.75;105888;1284;137719;-81
2022/07/07 00:06:38;;;;;;;8.50;4.00;;;;;;;14.38;79.38;98738.54;106109;1285;22712;-80
2022/07/07 00:09:04;;;;;;;4.40;3.40;;;;;;;14.42;79.32;98737.90;105914;1285;138786;-82
2022/07/07 00:11:31;;;;;;;8.80;3.10;;;;;;;14.42;79.18;98736.48;105759;1285;22753;-82
2022/07/07 00:13:58;;;;;;;5.00;3.20;;;;;;;14.41;79.14;98731.27;106027;1284;22568;-82
2022/07/07 00:16:25;;;;;;;3.40;3.10;;;;;;;14.42;79.19;98727.23;106069;1284;138270;-81
2022/07/07 00:18:54;;;;;;;4.20;3.30;;;;;;;14.45;79.29;98726.09;106253;1284;22566;-82
2022/07/07 00:21:21;;;;;;;4.50;3.80;;;;;;;14.46;79.20;98723.20;105697;1286;138189;-81
2022/07/07 00:23:47;;;;;;;6.10;4.20;;;;;;;14.47;79.31;98721.79;105808;1284;22577;-82
2022/07/07 00:26:13;;;;;;;6.80;3.50;;;;;;;14.47;79.15;98722.00;105672;1285;138887;-82
2022/07/07 00:28:43;;;;;;;5.30;3.60;;;;;;;14.45;79.03;98721.54;105748;1285;22716;-81
2022/07/07 00:31:09;;;;;;;9.40;3.60;;;;;;;14.39;78.62;98720.35;105607;1285;24244;-81
2022/07/07 00:33:36;;;;;;;6.60;4.00;;;;;;;14.29;78.62;98722.75;105709;1286;138290;-80
2022/07/07 00:36:03;;;;;;;7.70;3.80;;;;;;;14.25;78.93;98719.15;106178;1284;22574;-81
2022/07/07 00:38:30;;;;;;;6.80;3.70;;;;;;;14.21;79.02;98723.52;105783;1284;138779;-81
2022/07/07 00:40:57;;;;;;;6.00;3.50;;;;;;;14.18;78.96;98714.90;106114;1284;22568;-80
2022/07/07 00:43:23;;;;;;;7.50;3.70;;;;;;;14.16;78.96;98711.91;105665;1286;25382;-80
2022/07/07 00:45:51;;;;;;;9.20;4.50;;;;;;;14.15;78.97;98712.73;105830;1284;138223;-80
2022/07/07 00:48:21;;;;;;;8.10;4.30;;;;;;;14.15;78.96;98709.17;105524;1285;24239;-80
2022/07/07 00:50:48;;;;;;;5.30;4.10;;;;;;;14.15;79.00;98705.66;105808;1285;137627;-80
2022/07/07 00:53:17;;;;;;;7.30;4.20;;;;;;;14.12;78.78;98713.73;105682;1286;22577;-81
2022/07/07 00:55:44;;;;;;;7.60;3.40;;;;;;;13.98;78.31;98715.60;105621;1285;25393;-81
2022/07/07 00:58:11;;;;;;;6.60;3.90;;;;;;;13.77;78.42;98714.76;105824;1284;138634;-82
2022/07/07 01:00:38;;;;;;;8.60;3.60;;;;;;;13.63;79.38;98715.29;106029;1284;23199;-80
2022/07/07 01:03:04;;;;;;;7.60;4.40;;;;;;;13.62;79.66;98712.59;105547;1284;137766;-80
2022/07/07 01:05:32;;;;;;;7.00;4.20;;;;;;;13.63;79.72;98707.51;105763;1285;22582;-80
2022/07/07 01:08:02;;;;;;;7.10;3.70;;;;;;;13.65;79.84;98710.31;105649;1285;22560;-80
2022/07/07 01:10:29;;;;;;;7.30;4.00;;;;;;;13.64;79.82;98709.48;105346;1286;138077;-80
2022/07/07 01:13:02;;;;;;;4.80;3.50;;;;;;;13.62;79.81;98716.31;106002;1285;22563;-81
2022/07/07 01:15:28;;;;;;;4.70;3.60;;;;;;;13.61;79.93;98711.21;105668;1285;138673;-80
2022/07/07 01:17:55;;;;;;;4.20;3.60;;;;;;;13.63;79.76;98708.29;105653;1285;22578;-80
2022/07/07 01:20:22;;;;;;;5.10;3.50;;;;;;;13.65;79.78;98706.60;105695;1286;138069;-80
2022/07/07 01:22:55;;;;;;;5.30;3.90;;;;;;;13.63;79.40;98707.95;105543;1286;23920;-80
2022/07/07 01:25:23;;;;;;;6.80;3.70;;;;;;;13.52;79.32;98708.82;105757;1286;23269;-81
2022/07/07 01:27:50;;;;;;;5.30;3.30;;;;;;;13.39;79.31;98711.53;105650;1286;138298;-81
2022/07/07 01:30:18;;;;;;;5.10;3.20;;;;;;;13.37;79.90;98712.59;105836;1284;22640;-81
2022/07/07 01:32:44;;;;;;;7.00;3.40;;;;;;;13.36;79.86;98713.96;106025;1284;138213;-80
2022/07/07 01:35:11;;;;;;;6.50;3.80;;;;;;;13.38;80.15;98710.80;106000;1284;22607;-82
2022/07/07 01:37:37;;;;;;;7.30;3.90;;;;;;;13.38;79.88;98710.09;105733;1285;25234;-81
2022/07/07 01:40:05;;;;;;;8.80;4.30;;;;;;;13.35;79.86;98706.02;105957;1285;137605;-82
2022/07/07 01:42:31;;;;;;;6.60;3.80;;;;;;;13.34;79.91;98708.85;105956;1285;22581;-82
2022/07/07 01:44:57;;;;;;;7.00;4.40;;;;;;;13.37;80.31;98705.66;106268;1284;138273;-81
2022/07/07 01:47:24;;;;;;;10.40;4.20;;;;;;;13.39;80.20;98700.48;105727;1286;25369;-81
2022/07/07 01:49:51;;;;;;;7.70;4.30;;;;;;;13.38;80.21;98699.21;106132;1284;22680;-81
2022/07/07 01:52:18;;;;;;;9.30;4.70;;;;;;;13.37;80.44;98704.55;105537;1285;137829;-81
2022/07/07 01:54:46;;;;;;;8.10;4.20;;;;;;;13.34;80.33;98707.98;105471;1286;22639;-80
2022/07/07 01:57:12;;;;;;;6.20;3.90;;;;;;;13.33;80.30;98713.27;106310;1283;138097;-81
2022/07/07 01:59:39;;;;;;;8.20;4.20;;;;;;;13.32;80.25;98711.78;106416;1285;25356;-79
2022/07/07 02:02:08;;;;;;;;;;;;;;;13.28;80.30;98706.79;105848;1285;22549;-81
2022/07/07 02:04:35;;;;;;;7.50;3.90;;;;;;;13.26;80.48;98702.55;105846;1284;22863;-80
2022/07/07 02:07:02;;;;;;;8.60;4.30;;;;;;;13.24;80.78;98704.62;105393;1287;22569;-81
2022/07/07 02:09:31;;;;;;;6.50;3.90;;;;;;;13.26;80.94;98701.83;105568;1286;137694;-83
2022/07/07 02:11:57;;;;;;;7.40;4.60;;;;;;;13.24;80.88;98706.38;105564;1286;25285;-80
2022/07/07 02:14:24;;;;;;;9.80;4.60;;;;;;;13.23;81.22;98701.76;105744;1285;138378;-80
2022/07/07 02:16:50;;;;;;;6.30;4.10;;;;;;;13.20;81.24;98708.73;106029;1286;22709;-80
2022/07/07 02:19:16;;;;;;;8.40;4.20;;;;;;;13.20;81.24;98710.73;105491;1285;25373;-81
2022/07/07 02:21:42;;;;;;;7.70;4.40;;;;;;;13.12;81.24;98709.77;105552;1285;137930;-79
2022/07/07 02:24:10;;;;;;;6.50;4.10;;;;;;;13.07;81.22;98708.73;105433;1286;22544;-80
2022/07/07 02:26:39;;;;;;;8.30;5.60;;;;;;;13.03;81.53;98703.98;105495;1286;138156;-79
2022/07/07 02:29:06;;;;;;;10.00;4.90;;;;;;;13.02;81.88;98702.98;106220;1286;25419;-79
2022/07/07 02:31:32;;;;;;;6.50;4.30;;;;;;;13.03;81.82;98707.09;105591;1286;22572;-79
2022/07/07 02:34:13;;;;;;;10.90;4.90;;;;;;;13.05;82.24;98709.64;105887;1284;138371;-79
2022/07/07 02:36:39;;;;;;;8.30;4.70;;;;;;;13.09;82.35;98697.65;105468;1286;22600;-79
2022/07/07 02:39:06;;;;;;;6.60;4.80;;;;;;;13.11;82.20;98697.64;105393;1285;138357;-78
2022/07/07 02:41:33;;;;;;;7.40;5.10;;;;;;;13.12;82.14;98694.04;105347;1285;22668;-79
2022/07/07 02:43:59;;;;;;;7.30;4.90;;;;;;;13.12;82.14;98695.13;105382;1285;25364;-78
2022/07/07 02:46:30;;;;;;;7.00;5.50;;;;;;;13.14;82.63;98694.66;105410;1285;139009;-81
2022/07/07 02:48:59;;;;;;;8.20;5.10;;;;;;;13.16;82.23;98690.69;105825;1284;22572;-82
2022/07/07 02:51:26;;;;;;;5.70;4.80;;;;;;;13.18;82.55;98690.48;105034;1288;138383;-79
2022/07/07 02:53:52;;;;;;;6.80;4.80;;;;;;;13.20;82.32;98689.90;105648;1286;22582;-80
2022/07/07 02:56:18;;;;;;;9.10;5.20;;;;;;;13.19;82.46;98690.21;105420;1285;137964;-80
2022/07/07 02:58:45;;;;;;;8.70;5.30;;;;;;;13.20;82.30;98685.09;105418;1285;24271;-80
2022/07/07 03:01:11;;;;;;;9.10;5.80;;;;;;;13.21;82.22;98678.80;105497;1285;25308;-80
2022/07/07 03:03:53;;;;;;;7.10;5.30;;;;;;;13.24;82.18;98678.79;105196;1286;138218;-80
2022/07/07 03:06:19;;;;;;;9.90;5.30;;;;;;;13.27;82.22;98679.65;105433;1285;23477;-80
2022/07/07 03:08:48;;;;;;;6.60;4.80;;;;;;;13.29;82.25;98688.97;105727;1283;138675;-81
2022/07/07 03:11:14;;;;;;;8.10;5.40;;;;;;;13.27;82.18;98691.91;105692;1286;22581;-80
2022/07/07 03:13:40;;;;;;;9.90;5.20;;;;;;;13.20;81.84;98691.66;105459;1287;22561;-79
2022/07/07 03:16:14;;;;;;;6.50;5.00;;;;;;;13.07;81.94;98691.40;105480;1285;137922;-80
2022/07/07 03:18:46;;;;;;;6.50;4.70;;;;;;;13.04;82.62;98686.50;105349;1285;22582;-79
2022/07/07 03:21:14;;;;;;;9.00;5.20;;;;;;;13.08;82.94;98686.60;105422;1285;138033;-79
2022/07/07 03:23:40;;;;;;;14.20;5.60;;;;;;;13.12;83.02;98689.50;105289;1285;24089;-79
2022/07/07 03:26:07;;;;;;;7.70;5.60;;;;;;;13.17;82.90;98687.04;105131;1286;22572;-80
2022/07/07 03:28:33;;;;;;;9.40;5.10;;;;;;;13.23;83.06;98680.47;105437;1285;137833;-79
2022/07/07 03:31:00;;;;;;;7.40;4.90;;;;;;;13.29;83.05;98678.52;105113;1286;24925;-79
2022/07/07 03:33:26;;;;;;;7.40;5.60;;;;;;;13.35;83.03;98678.11;105222;1286;137730;-79
2022/07/07 03:35:53;;;;;;;8.20;5.90;;;;;;;13.41;83.25;98673.26;105376;1285;22662;-79
2022/07/07 03:38:19;;;;;;;7.20;5.70;;;;;;;13.48;83.05;98673.76;105214;1285;138143;-79
2022/07/07 03:40:51;;;;;;;5.70;5.20;;;;;;;13.54;83.16;98678.31;106082;1285;22678;-79
2022/07/07 03:43:17;;;;;;;8.00;5.70;;;;;;;13.60;83.10;98677.00;105467;1285;24493;-80
2022/07/07 03:45:48;;;;;;;7.30;5.70;;;;;;;13.67;83.16;98673.08;105451;1285;138229;-79
2022/07/07 03:48:15;;;;;;;7.00;5.90;;;;;;;13.72;82.67;98674.30;105354;1286;24386;-79
2022/07/07 03:50:41;;;;;;;8.80;6.00;;;;;;;13.68;82.20;98674.39;105397;1285;137862;-80
2022/07/07 03:53:07;;;;;;;12.00;5.20;;;;;;;13.59;81.98;98673.98;105302;1285;22583;-79
2022/07/07 03:55:34;;;;;;;7.50;5.30;;;;;;;13.44;81.95;98671.38;105023;1285;22560;-79
2022/07/07 03:58:02;;;;;;;9.50;5.10;;;;;;;13.30;82.33;98676.52;105711;1286;138447;-79
2022/07/07 04:00:29;;;;;;;7.30;4.90;;;;;;;13.18;82.84;98683.86;105582;1286;25504;-79
2022/07/07 04:02:56;;;;;;;8.90;4.90;;;;;;;13.09;83.37;98679.29;105285;1286;138287;-79
2022/07/07 04:05:22;;;;;;;8.60;5.20;;;;;;;13.07;83.92;98682.88;105622;1285;24099;-79
2022/07/07 04:08:03;;;;;;;8.90;5.80;;;;;;;13.14;84.23;98683.83;105437;1286;22572;-79
2022/07/07 04:10:29;;;;;;;7.30;5.40;;;;;;;13.19;84.37;98678.58;105179;1285;138450;-79
2022/07/07 04:12:56;;;;;;;9.70;5.20;;;;;;;13.32;84.60;98681.42;105209;1285;22716;-79
2022/07/07 04:15:22;;;;;;;7.90;6.30;;;;;;;13.46;84.70;98678.45;105535;1285;137619;-80
2022/07/07 04:17:49;;;;;;;8.10;7.10;;;;;;;13.57;84.09;98682.88;105311;1286;25340;-80
2022/07/07 04:20:15;;;;;;;12.40;7.30;;;;;;;13.63;83.81;98683.60;105965;1284;137722;-80
2022/07/07 04:22:42;;;;;;;8.30;6.10;;;;;;;13.71;83.76;98684.42;105790;1286;22569;-80
2022/07/07 04:25:09;;;;;;;13.10;5.70;;;;;;;13.79;83.45;98685.16;105925;1284;22580;-82
2022/07/07 04:27:35;;;;;;;11.60;5.80;;;;;;;13.85;83.26;98685.48;105499;1285;138508;-80
2022/07/07 04:30:05;;;;;;;9.00;5.80;;;;;;;13.96;83.27;98678.78;105798;1285;25629;-80
2022/07/07 04:32:31;;;;;;;16.00;6.50;;;;;;;14.04;83.13;98677.58;105801;1285;137862;-80
2022/07/07 04:34:58;;;;;;;7.50;6.50;;;;;;;14.10;82.86;98680.25;106295;1286;22579;-80
2022/07/07 04:37:24;;;;;;;9.00;5.60;;;;;;;14.16;82.65;98674.23;105680;1288;22647;-80
2022/07/07 04:39:51;;;;;;;5.90;5.20;;;;;;;14.24;82.53;98673.84;105098;1286;931091;-80
2022/07/07 04:42:17;;;;;;;9.10;5.60;;;;;;;14.30;82.36;98674.59;106148;1285;22677;-80
2022/07/07 04:44:43;;;;;;;11.40;5.50;;;;;;;14.37;82.05;98675.84;105381;1286;138494;-80
2022/07/07 04:47:10;;;;;;;9.40;5.80;;;;;;;14.45;81.89;98669.86;105562;1286;24422;-80
2022/07/07 04:49:39;;;;;;;8.70;5.30;;;;;;;14.48;81.48;98669.44;105913;1286;22572;-80
2022/07/07 04:52:05;;;;;;;7.10;5.60;;;;;;;14.51;81.28;98671.98;105718;1285;137828;-80
2022/07/07 04:54:32;;;;;;;8.90;6.10;;;;;;;14.53;81.08;98674.73;106206;1284;22602;-80
2022/07/07 04:56:58;;;;;;;8.60;5.10;;;;;;;14.57;80.91;98676.73;105440;1287;138346;-80
2022/07/07 04:59:26;;;;;;;10.90;5.80;;;;;;;14.58;80.34;98678.95;105863;1285;22641;-80
2022/07/07 05:01:52;;;;;;;8.50;5.70;;;;;;;14.58;80.33;98677.80;105511;1286;23066;-80
2022/07/07 05:04:18;;;;;;;12.40;6.40;;;;;;;14.60;80.35;98674.42;105514;1286;137904;-80
2022/07/07 05:06:44;;;;;;;14.30;7.10;;;;;;;14.65;80.48;98676.15;105782;1285;23361;-80
2022/07/07 05:09:11;;;;;;;11.70;6.80;;;;;;;14.71;80.21;98675.40;105583;1286;138789;-80
2022/07/07 05:11:37;;;;;;;6.90;5.70;;;;;;;14.73;80.10;98670.86;105455;1287;25414;-80
2022/07/07 05:14:04;;;;;;;10.40;6.50;;;;;;;14.74;80.35;98667.19;105695;1286;22639;-80
2022/07/07 05:16:30;;;;;;;10.00;7.20;;;;;;;14.82;80.63;98670.79;105333;1286;138092;-81
2022/07/07 05:18:56;;;;;;;11.90;8.40;;;;;;;14.94;80.90;98670.67;105684;1285;22582;-80
2022/07/07 05:21:23;;;;;;;9.60;7.40;;;;;;;15.04;80.25;98668.36;106122;1285;137755;-80
2022/07/07 05:23:49;;;;;;;11.30;8.00;;;;;;;15.11;79.92;98665.85;106278;1285;22623;-83
2022/07/07 05:26:23;;;;;;;8.20;6.90;;;;;;;15.18;79.76;98662.98;105624;1285;138613;-82
2022/07/07 05:28:49;;;;;;;10.10;7.10;;;;;;;15.25;79.55;98664.86;105713;1285;22571;-88
2022/07/07 05:31:16;;;;;;;9.90;7.50;;;;;;;15.31;79.14;98672.77;106343;1285;23057;-73
2022/07/07 05:33:43;;;;;;;11.50;7.00;;;;;;;15.36;79.08;98675.35;104927;1288;137860;-93
2022/07/07 05:36:10;;;;;;;12.80;8.20;;;;;;;15.39;79.05;98674.81;105621;1285;23452;-80
2022/07/07 05:38:36;;;;;;;10.50;8.20;;;;;;;15.44;79.01;98678.61;105426;1285;138671;-80
2022/07/07 05:41:02;;;;;;;11.70;7.60;;;;;;;15.48;79.13;98673.79;105692;1285;23322;-81
2022/07/07 05:43:29;;;;;;;12.00;6.80;;;;;;;15.52;79.09;98668.70;105560;1285;23019;-80
2022/07/07 05:45:55;;;;;;;12.90;7.40;;;;;;;15.55;79.07;98664.80;105325;1285;138960;-80
2022/07/07 05:48:21;;;;;;;13.30;7.50;;;;;;;15.55;79.14;98667.38;105708;1285;22573;-81
2022/07/07 05:50:47;;;;;;;15.80;8.80;;;;;;;15.62;79.37;98666.23;105322;1285;138025;-80
2022/07/07 05:53:14;;;;;;;13.10;8.70;;;;;;;15.67;79.37;98664.44;105422;1286;25604;-81
2022/07/07 05:55:40;;;;;;;9.70;8.20;;;;;;;15.72;79.32;98666.79;105420;1286;23804;-80
2022/07/07 05:58:21;;;;;;;13.20;8.40;;;;;;;15.77;79.10;98665.56;105101;1287;139648;-80
2022/07/07 06:00:47;;;;;;;13.40;8.80;;;;;;;15.83;78.76;98664.52;105353;1285;23808;-80
2022/07/07 06:03:13;;;;;;;11.80;8.30;;;;;;;15.91;78.85;98660.13;105798;1286;139000;-80
2022/07/07 06:05:41;;;;;;;15.70;9.30;;;;;;;16.00;78.62;98659.73;105756;1285;22660;-80
2022/07/07 06:08:08;;;;;;;15.20;9.00;;;;;;;16.10;78.69;98659.84;106005;1285;22675;-80
2022/07/07 06:10:36;;;;;;;14.00;8.40;;;;;;;16.20;78.62;98653.18;106086;1285;24348;-81
2022/07/07 06:13:02;;;;;;;12.70;9.50;;;;;;;16.29;78.53;98651.08;106023;1285;22617;-80
2022/07/07 06:15:33;;;;;;;14.70;9.20;;;;;;;16.36;78.07;98648.37;105694;1286;138516;-80
2022/07/07 06:18:01;;;;;;;14.40;9.50;;;;;;;16.41;77.98;98647.86;105875;1285;24300;-81
2022/07/07 06:20:27;;;;;;;11.40;9.40;;;;;;;16.50;77.99;98648.50;105594;1285;139142;-80
2022/07/07 06:22:53;;;;;;;14.80;10.30;;;;;;;16.58;77.40;98651.11;105746;1285;22646;-82
2022/07/07 06:25:20;;;;;;;16.30;11.50;;;;;;;16.65;77.14;98647.68;106243;1286;23287;-87
2022/07/07 06:27:46;;;;;;;19.10;10.90;;;;;;;16.71;77.05;98646.34;105734;1285;138293;-86
2022/07/07 06:30:13;;;;;;;14.60;10.00;;;;;;;16.79;77.08;98643.17;106010;1285;24432;-78
2022/07/07 06:32:39;;;;;;;14.10;10.10;;;;;;;16.91;76.49;98639.85;105357;1285;139278;-79
2022/07/07 06:35:06;;;;;;;15.20;10.60;;;;;;;17.00;75.81;98636.52;105387;1285;24242;-78
2022/07/07 06:37:33;;;;;;;13.20;10.10;;;;;;;17.04;74.91;98638.25;106565;1285;22618;-80
2022/07/07 06:39:59;;;;;;;17.60;10.80;;;;;;;17.10;75.23;98641.63;105892;1285;138183;-80
2022/07/07 06:42:27;;;;;;;15.20;10.60;;;;;;;17.15;74.87;98639.50;105903;1285;23729;-80
2022/07/07 06:44:59;;;;;;;13.20;9.70;;;;;;;17.23;75.14;98639.85;105822;1286;138116;-77
2022/07/07 06:47:25;;;;;;;14.10;9.30;;;;;;;17.33;74.57;98639.73;105255;1287;22568;-82
2022/07/07 06:49:52;;;;;;;10.50;7.60;;;;;;;17.42;73.72;98636.05;105853;1286;22651;-80
2022/07/07 06:52:18;;;;;;;10.70;7.60;;;;;;;17.53;73.15;98633.38;105916;1285;137674;-82
2022/07/07 06:54:44;;;;;;;13.70;7.50;;;;;;;17.65;72.91;98633.34;105256;1285;22889;-81
2022/07/07 06:57:11;;;;;;;12.30;7.70;;;;;;;17.77;72.71;98633.31;105897;1286;137773;-84
2022/07/07 06:59:37;;;;;;;10.10;6.20;;;;;;;17.89;72.14;98632.75;105852;1285;25793;-79
2022/07/07 07:02:04;;;;;;;8.90;7.70;;;;;;;18.01;71.75;98629.71;105831;1285;25183;-78
2022/07/07 07:04:31;;;;;;;10.80;6.90;;;;;;;18.12;71.61;98628.06;105598;1285;137493;-78
2022/07/07 07:06:58;;;;;;;10.20;5.50;;;;;;;18.25;70.53;98628.05;105629;1287;24420;-81
2022/07/07 07:09:38;;;;;;;8.30;6.20;;;;;;;18.39;69.71;98622.34;105621;1286;138039;-80
2022/07/07 07:12:05;;;;;;;10.30;6.50;;;;;;;18.50;69.81;98625.20;105772;1285;22697;-81
2022/07/07 07:14:32;;;;;;;9.00;5.40;;;;;;;18.61;69.19;98624.08;105500;1285;138024;-81
2022/07/07 07:16:58;;;;;;;12.50;5.90;;;;;;;18.71;68.47;98622.95;106267;1285;24260;-81
2022/07/07 07:19:25;;;;;;;10.80;5.30;;;;;;;18.87;68.25;98617.77;105716;1285;22557;-81
2022/07/07 07:21:51;;;;;;;8.50;5.30;;;;;;;18.99;66.99;98618.37;105647;1285;137728;-81
2022/07/07 07:24:18;;;;;;;7.50;4.80;;;;;;;19.09;65.35;98618.64;106347;1284;25392;-80
2022/07/07 07:26:44;;;;;;;9.20;4.80;;;;;;;19.21;64.42;98616.48;106039;1286;137738;-81
2022/07/07 07:29:10;;;;;;;9.80;4.80;;;;;;;19.31;63.19;98615.95;106364;1284;24162;-83
2022/07/07 07:31:37;;;;;;;9.40;4.40;;;;;;;19.43;63.40;98613.07;105927;1284;22593;-81
2022/07/07 07:34:03;;;;;;;7.80;3.80;;;;;;;19.54;63.46;98613.77;105920;1285;138017;-81
2022/07/07 07:36:30;;;;;;;6.00;3.30;;;;;;;19.63;60.87;98612.81;106148;1285;22606;-81
2022/07/07 07:38:58;;;;;;;5.10;3.20;;;;;;;19.71;60.19;98610.41;106234;1285;137984;-81
2022/07/07 07:41:25;;;;;;;5.70;3.10;;;;;;;19.81;59.55;98611.27;106052;1287;22589;-81
2022/07/07 07:43:51;;;;;;;7.70;2.80;;;;;;;19.93;58.08;98610.54;106464;1284;22582;-81
2022/07/07 07:46:19;;;;;;;8.70;2.80;;;;;;;19.96;57.40;98607.70;106001;1284;137633;-81
2022/07/07 07:48:46;;;;;;;8.80;3.10;;;;;;;20.07;57.17;98604.09;106263;1285;22630;-81
2022/07/07 07:51:12;;;;;;;8.40;3.50;;;;;;;20.19;58.15;98606.80;106352;1284;137677;-82
2022/07/07 07:53:39;;;;;;;3.30;2.50;;;;;;;20.32;57.43;98601.91;105491;1285;22705;-82
2022/07/07 07:56:05;;;;;;;5.70;3.20;;;;;;;20.39;56.26;98597.67;105739;1285;24260;-81
2022/07/07 07:58:31;;;;;;;5.20;3.80;;;;;;;20.52;57.96;98595.55;105733;1286;137633;-81
2022/07/07 08:00:58;;;;;;;4.50;3.70;;;;;;;20.69;58.75;98592.23;105850;1285;22587;-81
2022/07/07 08:03:24;;;;;;;4.70;3.60;;;;;;;20.85;57.64;98589.80;105480;1286;137935;-81
2022/07/07 08:05:50;;;;;;;6.90;3.90;;;;;;;21.00;57.45;98591.96;106135;1284;22580;-81
2022/07/07 08:08:16;;;;;;;6.80;3.70;;;;;;;21.13;57.27;98591.09;105661;1285;138047;-81
2022/07/07 08:10:43;;;;;;;8.00;4.10;;;;;;;21.26;57.37;98594.49;105769;1284;22852;-82
2022/07/07 08:13:09;;;;;;;6.90;4.00;;;;;;;21.33;57.30;98593.71;105833;1284;22583;-81
2022/07/07 08:15:36;;;;;;;7.40;3.80;;;;;;;21.51;56.79;98595.48;105646;1286;137625;-82
2022/07/07 08:18:03;;;;;;;6.60;4.10;;;;;;;21.70;55.55;98592.85;105876;1286;24357;-83
2022/07/07 08:20:29;;;;;;;7.60;3.60;;;;;;;21.71;54.45;98596.95;105596;1285;137736;-81
2022/07/07 08:22:55;;;;;;;6.20;3.70;;;;;;;21.69;54.83;98597.84;106022;1285;23937;-82
2022/07/07 08:25:22;;;;;;;6.70;3.40;;;;;;;21.72;55.26;98598.64;105865;1285;22700;-81
2022/07/07 08:27:49;;;;;;;6.00;2.80;;;;;;;21.77;55.27;98597.80;105722;1286;138928;-81
2022/07/07 08:30:15;;;;;;;4.00;2.90;;;;;;;21.89;54.66;98595.10;105781;1286;22576;-81
2022/07/07 08:32:45;;;;;;;5.00;3.00;;;;;;;21.95;54.27;98596.73;105711;1284;137836;-81
2022/07/07 08:35:12;;;;;;;4.40;2.90;;;;;;;22.00;53.69;98593.05;105864;1286;22731;-81
2022/07/07 08:37:38;;;;;;;4.90;3.30;;;;;;;22.06;53.55;98590.28;105779;1286;22556;-81
2022/07/07 08:40:05;;;;;;;8.00;3.00;;;;;;;22.13;53.41;98589.11;105499;1286;138263;-83
2022/07/07 08:42:32;;;;;;;7.00;3.70;;;;;;;22.10;53.41;98593.56;105887;1285;24261;-81
2022/07/07 08:44:58;;;;;;;4.70;2.90;;;;;;;22.05;53.84;98595.14;105884;1284;137975;-81
2022/07/07 08:47:39;;;;;;;5.10;3.20;;;;;;;22.12;52.88;98589.00;105572;1287;22639;-82
2022/07/07 08:50:06;;;;;;;8.00;2.70;;;;;;;22.18;51.86;98588.52;105863;1284;25274;-82
2022/07/07 08:52:33;;;;;;;5.30;2.90;;;;;;;22.20;50.65;98593.96;105734;1286;137598;-83
2022/07/07 08:55:02;;;;;;;7.40;3.20;;;;;;;22.05;50.62;98591.64;106001;1286;24299;-83
2022/07/07 08:57:28;;;;;;;;;;;;;;;21.94;51.33;98592.05;106029;1286;138211;-82
2022/07/07 08:59:56;;;;;;;5.00;3.00;;;;;;;21.86;51.99;98587.41;105687;1286;22554;-83
2022/07/07 09:02:24;;;;;;;4.20;2.60;;;;;;;21.76;51.58;98590.31;105556;1286;137881;-82
2022/07/07 09:04:53;;;;;;;4.60;2.80;;;;;;;21.67;51.63;98586.34;105959;1284;24409;-84
2022/07/07 09:07:20;;;;;;;6.10;2.60;;;;;;;21.58;51.43;98588.73;106033;1284;23460;-82
2022/07/07 09:09:52;;;;;;;10.30;3.00;;;;;;;21.52;52.22;98593.14;105781;1284;137559;-81
2022/07/07 09:12:20;;;;;;;6.00;2.90;;;;;;;21.46;52.23;98590.23;105861;1284;23748;-82
2022/07/07 09:15:04;;;;;;;5.10;3.00;;;;;;;21.37;52.71;98585.83;106020;1286;138261;-82
2022/07/07 09:17:32;;;;;;;4.30;2.50;;;;;;;21.33;53.10;98586.24;105690;1285;23555;-81
2022/07/07 09:20:00;;;;;;;6.50;3.10;;;;;;;21.33;53.11;98587.37;105381;1287;22557;-82
2022/07/07 09:22:51;;;;;;;2.80;2.60;;;;;;;21.55;52.93;98590.56;105769;1286;137563;-83
2022/07/07 09:25:21;;;;;;;3.90;2.20;;;;;;;21.91;51.76;98591.79;105696;1284;22583;-83
2022/07/07 09:27:55;;;;;;;4.00;2.60;;;;;;;22.25;51.96;98585.47;106045;1284;137425;-83
2022/07/07 09:30:29;;;;;;;4.70;3.20;;;;;;;22.51;50.93;98585.64;105654;1287;24299;-84
2022/07/07 09:33:40;;;;;;;3.70;2.40;;;;;;;22.59;50.15;98579.86;106201;1284;137654;-84
2022/07/07 09:39:48;;;;;;;2.30;2.00;;;;;;;23.16;49.91;98574.42;105608;1285;137670;-83
2022/07/07 09:42:21;;;;;;;4.30;2.10;;;;;;;23.41;49.74;98572.86;105718;1287;22553;-83
2022/07/07 09:45:10;;;;;;;3.50;2.20;;;;;;;23.69;49.30;98566.89;105977;1287;138390;-84
2022/07/07 09:47:38;;;;;;;3.10;2.10;;;;;;;23.85;47.71;98567.32;105833;1284;24109;-83
2022/07/07 09:50:05;;;;;;;5.00;2.30;;;;;;;23.96;46.95;98565.01;106019;1284;22558;-84
2022/07/07 09:52:34;;;;;;;3.00;2.00;;;;;;;24.18;45.86;98563.70;105673;1287;137518;-84
2022/07/07 09:55:04;;;;;;;2.90;2.20;;;;;;;24.42;46.45;98563.83;105619;1286;25274;-83
2022/07/07 09:57:30;;;;;;;2.20;2.00;;;;;;;24.66;46.43;98557.45;105641;1287;137460;-83
2022/07/07 09:59:57;;;;;;;4.30;2.00;;;;;;;24.72;45.28;98550.42;105996;1286;24223;-83
2022/07/07 10:02:25;;;;;;;3.10;2.30;;;;;;;24.86;45.72;98545.80;105565;1286;137873;-84
2022/07/07 10:04:56;;;;;;;;;;;;;;;25.08;46.45;98543.80;105947;1286;24853;-74
2022/07/07 10:07:25;;;;;;;4.10;2.00;;;;;;;25.21;45.40;98539.17;105593;1284;31338;-81
2022/07/07 10:09:54;;;;;;;5.20;1.70;;;;;;;25.25;43.50;98535.86;106847;1284;138195;-78
2022/07/07 10:12:28;;;;;;;4.40;1.80;;;;;;;25.33;43.23;98540.55;106540;1284;22710;-84
2022/07/07 10:15:01;;;;;;;3.60;1.80;;;;;;;25.54;42.61;98538.30;105980;1286;138068;-84
2022/07/07 10:17:29;;;;;;;5.90;1.80;;;;;;;25.58;41.46;98541.05;106039;1286;23434;-87
2022/07/07 10:19:58;;;;;;;2.90;1.50;;;;;;;25.71;40.14;98541.67;105732;1286;24242;-89
2022/07/07 10:22:28;;;;;;;2.20;1.70;;;;;;;25.84;38.38;98535.45;106082;1286;138419;-87
2022/07/07 10:24:55;;;;;;;2.10;1.60;;;;;;;25.80;39.10;98541.94;106150;1287;22595;-87
2022/07/07 10:27:26;;;;;;;3.10;1.50;;;;;;;25.78;38.75;98541.47;105922;1284;137713;-87
2022/07/07 10:29:58;;;;;;;3.90;1.60;;;;;;;25.61;38.12;98539.81;105877;1284;22576;-90
2022/07/07 10:32:40;;;;;;;3.70;1.90;;;;;;;25.38;38.57;98541.05;106207;1284;138673;-88
2022/07/07 10:35:15;;;;;;;1.60;1.50;;;;;;;25.09;38.69;98543.76;106247;1284;22799;-89
2022/07/07 10:37:47;;;;;;;3.00;1.90;;;;;;;24.78;38.93;98542.02;106285;1285;22559;-90
2022/07/07 10:40:29;;;;;;;2.60;1.90;;;;;;;24.39;39.16;98547.80;105925;1286;138435;-87
2022/07/07 10:43:23;;;;;;;8.70;2.30;;;;;;;23.94;40.23;98551.64;106383;1286;24252;-88
2022/07/07 10:45:52;;;;;;;3.10;1.90;;;;;;;23.51;40.63;98548.98;105759;1287;137898;-87
2022/07/07 10:48:46;;;;;;;4.80;1.80;;;;;;;23.19;41.90;98551.55;105580;1287;22569;-86
2022/07/07 10:51:28;;;;;;;3.60;2.00;;;;;;;22.93;42.91;98543.73;105888;1284;137843;-86
2022/07/07 10:54:02;;;;;;;3.60;2.40;;;;;;;22.81;44.35;98546.32;105552;1284;25865;-86
2022/07/07 10:56:53;;;;;;;3.80;2.00;;;;;;;22.70;43.38;98543.58;105606;1284;137719;-86
2022/07/07 10:59:21;;;;;;;2.60;1.70;;;;;;;22.58;42.77;98546.09;105810;1286;23055;-87
2022/07/07 11:02:01;;;;;;;7.40;2.20;;;;;;;22.52;43.15;98543.70;105364;1286;22729;-87
2022/07/07 11:04:41;;;;;;;2.80;2.40;;;;;;;22.50;43.34;98540.17;105822;1286;138226;-87
2022/07/07 11:07:14;;;;;;;4.90;2.10;;;;;;;22.55;44.39;98538.45;106007;1284;22608;-89
2022/07/07 11:09:54;;;;;;;6.50;2.40;;;;;;;22.69;43.71;98538.52;105537;1283;137466;-87
2022/07/07 11:12:38;;;;;;;3.50;2.20;;;;;;;23.09;43.56;98537.86;105705;1284;24424;-88
2022/07/07 11:15:22;;;;;;;2.70;2.20;;;;;;;23.51;42.85;98530.11;105657;1284;137604;-87
2022/07/07 11:18:09;;;;;;;3.60;1.80;;;;;;;23.84;41.80;98525.47;105404;1284;24288;-88
2022/07/07 11:20:36;;;;;;;3.80;2.00;;;;;;;24.12;41.62;98518.86;105345;1287;137941;-90
2022/07/07 11:23:09;;;;;;;5.60;2.20;;;;;;;24.17;41.80;98514.76;105363;1287;25427;-89
2022/07/07 11:25:38;;;;;;;4.90;2.20;;;;;;;24.17;41.89;98514.75;105524;1286;22586;-89
2022/07/07 11:28:05;;;;;;;3.00;2.30;;;;;;;24.22;41.01;98506.71;105906;1287;137590;-90
2022/07/07 11:30:33;;;;;;;3.10;2.00;;;;;;;24.26;41.67;98507.25;105651;1285;22580;-88
2022/07/07 11:33:00;;;;;;;2.30;1.80;;;;;;;24.31;41.79;98505.08;105443;1287;137741;-89